sensor_id;sensor_type;location;lat;lon;timestamp;pressure;altitude;pressure_sealevel;temperature;humidity
16461;BME280;8341;42.048;24.650;2022-08-14T00:01:16;96576.16;;;22.36;65.32
16461;BME280;8341;42.048;24.650;2022-08-14T00:03:44;96572.06;;;22.37;65.77
16461;BME280;8341;42.048;24.650;2022-08-14T00:06:11;96570.03;;;22.37;65.42
16461;BME280;8341;42.048;24.650;2022-08-14T00:08:38;96568.97;;;22.33;64.69
16461;BME280;8341;42.048;24.650;2022-08-14T00:11:05;96566.34;;;22.35;65.39
16461;BME280;8341;42.048;24.650;2022-08-14T00:13:32;96560.56;;;22.40;66.21
16461;BME280;8341;42.048;24.650;2022-08-14T00:15:59;96549.91;;;22.29;63.86
16461;BME280;8341;42.048;24.650;2022-08-14T00:18:27;96560.63;;;22.33;63.30
16461;BME280;8341;42.048;24.650;2022-08-14T00:20:56;96554.16;;;22.30;63.42
16461;BME280;8341;42.048;24.650;2022-08-14T00:23:23;96557.09;;;22.32;63.66
16461;BME280;8341;42.048;24.650;2022-08-14T00:25:52;96547.63;;;22.35;64.13
16461;BME280;8341;42.048;24.650;2022-08-14T00:28:20;96552.44;;;22.35;64.87
16461;BME280;8341;42.048;24.650;2022-08-14T00:30:51;96550.75;;;22.39;65.09
16461;BME280;8341;42.048;24.650;2022-08-14T00:33:18;96546.91;;;22.35;64.88
16461;BME280;8341;42.048;24.650;2022-08-14T00:35:45;96547.34;;;22.24;65.21
16461;BME280;8341;42.048;24.650;2022-08-14T00:38:13;96538.84;;;22.22;65.42
16461;BME280;8341;42.048;24.650;2022-08-14T00:40:40;96536.81;;;22.22;65.01
16461;BME280;8341;42.048;24.650;2022-08-14T00:43:07;96541.00;;;22.31;64.89
16461;BME280;8341;42.048;24.650;2022-08-14T00:45:34;96542.66;;;22.34;65.24
16461;BME280;8341;42.048;24.650;2022-08-14T00:48:02;96535.41;;;22.38;64.18
16461;BME280;8341;42.048;24.650;2022-08-14T00:50:29;96533.53;;;22.41;65.01
16461;BME280;8341;42.048;24.650;2022-08-14T00:52:58;96540.94;;;22.38;66.41
16461;BME280;8341;42.048;24.650;2022-08-14T00:55:27;96531.13;;;22.37;66.93
16461;BME280;8341;42.048;24.650;2022-08-14T00:57:55;96534.31;;;22.34;67.36
16461;BME280;8341;42.048;24.650;2022-08-14T01:00:37;96521.41;;;22.29;67.33
16461;BME280;8341;42.048;24.650;2022-08-14T01:03:05;96520.09;;;22.30;67.58
16461;BME280;8341;42.048;24.650;2022-08-14T01:05:33;96522.88;;;22.30;68.32
16461;BME280;8341;42.048;24.650;2022-08-14T01:08:00;96515.66;;;22.27;68.71
16461;BME280;8341;42.048;24.650;2022-08-14T01:10:29;96518.13;;;22.23;69.62
16461;BME280;8341;42.048;24.650;2022-08-14T01:13:11;96516.09;;;22.23;69.08
16461;BME280;8341;42.048;24.650;2022-08-14T01:15:41;96515.88;;;22.21;67.27
16461;BME280;8341;42.048;24.650;2022-08-14T01:18:08;96511.06;;;22.22;65.92
16461;BME280;8341;42.048;24.650;2022-08-14T01:20:52;96513.38;;;22.16;66.28
16461;BME280;8341;42.048;24.650;2022-08-14T01:23:33;96510.75;;;22.18;65.64
16461;BME280;8341;42.048;24.650;2022-08-14T01:26:00;96515.25;;;22.13;64.33
16461;BME280;8341;42.048;24.650;2022-08-14T01:28:27;96510.75;;;22.18;64.74
16461;BME280;8341;42.048;24.650;2022-08-14T01:30:56;96507.00;;;22.23;66.14
16461;BME280;8341;42.048;24.650;2022-08-14T01:33:23;96510.34;;;22.21;68.28
16461;BME280;8341;42.048;24.650;2022-08-14T01:35:53;96504.22;;;22.23;68.38
16461;BME280;8341;42.048;24.650;2022-08-14T01:38:21;96512.56;;;22.23;68.74
16461;BME280;8341;42.048;24.650;2022-08-14T01:40:50;96509.03;;;22.22;67.64
16461;BME280;8341;42.048;24.650;2022-08-14T01:43:17;96505.38;;;22.20;68.29
16461;BME280;8341;42.048;24.650;2022-08-14T01:45:44;96513.84;;;22.22;67.42
16461;BME280;8341;42.048;24.650;2022-08-14T01:48:17;96512.72;;;22.25;69.54
16461;BME280;8341;42.048;24.650;2022-08-14T01:50:44;96511.66;;;22.20;69.19
16461;BME280;8341;42.048;24.650;2022-08-14T01:53:11;96501.50;;;22.15;70.20
16461;BME280;8341;42.048;24.650;2022-08-14T01:55:38;96506.09;;;22.20;69.58
16461;BME280;8341;42.048;24.650;2022-08-14T01:58:06;96501.50;;;22.15;68.95
16461;BME280;8341;42.048;24.650;2022-08-14T02:00:36;96497.84;;;22.13;68.77
16461;BME280;8341;42.048;24.650;2022-08-14T02:03:04;96499.28;;;22.14;68.03
16461;BME280;8341;42.048;24.650;2022-08-14T02:05:32;96503.03;;;22.09;68.08
16461;BME280;8341;42.048;24.650;2022-08-14T02:07:59;96494.38;;;21.72;70.27
16461;BME280;8341;42.048;24.650;2022-08-14T02:10:26;96488.81;;;21.72;69.10
16461;BME280;8341;42.048;24.650;2022-08-14T02:12:54;96483.63;;;21.76;69.00
16461;BME280;8341;42.048;24.650;2022-08-14T02:15:23;96493.78;;;21.81;70.17
16461;BME280;8341;42.048;24.650;2022-08-14T02:17:50;96493.00;;;21.89;70.95
16461;BME280;8341;42.048;24.650;2022-08-14T02:20:17;96500.22;;;21.92;70.63
16461;BME280;8341;42.048;24.650;2022-08-14T02:22:45;96506.97;;;21.73;70.75
16461;BME280;8341;42.048;24.650;2022-08-14T02:25:12;96507.63;;;21.57;71.62
16461;BME280;8341;42.048;24.650;2022-08-14T02:27:40;96512.59;;;21.58;70.90
16461;BME280;8341;42.048;24.650;2022-08-14T02:30:08;96506.28;;;21.65;71.59
16461;BME280;8341;42.048;24.650;2022-08-14T02:32:37;96510.84;;;21.70;70.92
16461;BME280;8341;42.048;24.650;2022-08-14T02:35:06;96505.09;;;21.76;72.40
16461;BME280;8341;42.048;24.650;2022-08-14T02:37:41;96505.16;;;21.68;73.19
16461;BME280;8341;42.048;24.650;2022-08-14T02:40:08;96500.72;;;21.65;73.63
16461;BME280;8341;42.048;24.650;2022-08-14T02:42:36;96508.50;;;21.67;74.23
16461;BME280;8341;42.048;24.650;2022-08-14T02:45:04;96511.47;;;21.61;74.93
16461;BME280;8341;42.048;24.650;2022-08-14T02:47:31;96508.53;;;21.59;74.78
16461;BME280;8341;42.048;24.650;2022-08-14T02:50:00;96507.81;;;21.59;74.18
16461;BME280;8341;42.048;24.650;2022-08-14T02:52:27;96503.72;;;21.60;73.38
16461;BME280;8341;42.048;24.650;2022-08-14T02:54:54;96501.50;;;21.58;73.60
16461;BME280;8341;42.048;24.650;2022-08-14T02:57:21;96492.69;;;21.45;74.18
16461;BME280;8341;42.048;24.650;2022-08-14T02:59:50;96493.06;;;21.49;73.93
16461;BME280;8341;42.048;24.650;2022-08-14T03:02:17;96492.69;;;21.45;74.26
16461;BME280;8341;42.048;24.650;2022-08-14T03:04:44;96491.41;;;21.46;74.49
16461;BME280;8341;42.048;24.650;2022-08-14T03:07:12;96492.38;;;21.41;74.31
16461;BME280;8341;42.048;24.650;2022-08-14T03:09:41;96497.50;;;21.44;74.84
16461;BME280;8341;42.048;24.650;2022-08-14T03:12:08;96492.69;;;21.45;74.34
16461;BME280;8341;42.048;24.650;2022-08-14T03:14:35;96486.41;;;21.44;74.68
16461;BME280;8341;42.048;24.650;2022-08-14T03:17:03;96473.50;;;21.39;74.97
16461;BME280;8341;42.048;24.650;2022-08-14T03:19:35;96484.38;;;21.45;75.02
16461;BME280;8341;42.048;24.650;2022-08-14T03:22:01;96477.19;;;21.42;73.72
16461;BME280;8341;42.048;24.650;2022-08-14T03:24:31;96477.38;;;21.44;73.19
16461;BME280;8341;42.048;24.650;2022-08-14T03:26:58;96464.78;;;21.43;72.25
16461;BME280;8341;42.048;24.650;2022-08-14T03:29:25;96467.41;;;21.41;73.06
16461;BME280;8341;42.048;24.650;2022-08-14T03:31:53;96470.72;;;21.39;72.72
16461;BME280;8341;42.048;24.650;2022-08-14T03:34:20;96469.59;;;21.42;71.91
16461;BME280;8341;42.048;24.650;2022-08-14T03:36:48;96459.78;;;21.49;71.42
16461;BME280;8341;42.048;24.650;2022-08-14T03:39:19;96455.69;;;21.50;70.84
16461;BME280;8341;42.048;24.650;2022-08-14T03:41:48;96468.78;;;21.57;71.10
16461;BME280;8341;42.048;24.650;2022-08-14T03:44:15;96464.31;;;21.61;71.15
16461;BME280;8341;42.048;24.650;2022-08-14T03:46:42;96468.53;;;21.62;71.22
16461;BME280;8341;42.048;24.650;2022-08-14T03:49:09;96472.47;;;21.59;71.13
16461;BME280;8341;42.048;24.650;2022-08-14T03:51:36;96473.06;;;21.50;71.96
16461;BME280;8341;42.048;24.650;2022-08-14T03:54:05;96480.06;;;21.59;72.03
16461;BME280;8341;42.048;24.650;2022-08-14T03:56:34;96480.16;;;21.68;72.25
16461;BME280;8341;42.048;24.650;2022-08-14T03:59:05;96494.44;;;21.65;72.48
16461;BME280;8341;42.048;24.650;2022-08-14T04:01:36;96490.16;;;21.71;72.29
16461;BME280;8341;42.048;24.650;2022-08-14T04:04:04;96494.22;;;21.70;72.43
16461;BME280;8341;42.048;24.650;2022-08-14T04:06:31;96493.66;;;21.72;71.01
16461;BME280;8341;42.048;24.650;2022-08-14T04:08:58;96493.25;;;21.75;71.34
16461;BME280;8341;42.048;24.650;2022-08-14T04:11:25;96497.69;;;21.78;72.36
16461;BME280;8341;42.048;24.650;2022-08-14T04:13:54;96503.22;;;21.78;72.89
16461;BME280;8341;42.048;24.650;2022-08-14T04:16:22;96504.88;;;21.81;73.02
16461;BME280;8341;42.048;24.650;2022-08-14T04:18:50;96507.31;;;21.77;74.25
16461;BME280;8341;42.048;24.650;2022-08-14T04:21:19;96512.69;;;21.75;75.03
16461;BME280;8341;42.048;24.650;2022-08-14T04:23:47;96507.31;;;21.77;75.15
16461;BME280;8341;42.048;24.650;2022-08-14T04:26:14;96516.94;;;21.76;74.75
16461;BME280;8341;42.048;24.650;2022-08-14T04:28:44;96517.19;;;21.63;74.28
16461;BME280;8341;42.048;24.650;2022-08-14T04:31:11;96513.59;;;21.46;74.72
16461;BME280;8341;42.048;24.650;2022-08-14T04:33:39;96522.78;;;21.56;75.17
16461;BME280;8341;42.048;24.650;2022-08-14T04:36:07;96523.53;;;21.56;77.56
16461;BME280;8341;42.048;24.650;2022-08-14T04:38:34;96532.19;;;21.60;77.91
16461;BME280;8341;42.048;24.650;2022-08-14T04:41:18;96524.56;;;21.68;77.02
16461;BME280;8341;42.048;24.650;2022-08-14T04:44:03;96525.66;;;21.73;76.94
16461;BME280;8341;42.048;24.650;2022-08-14T04:46:33;96528.41;;;21.73;76.96
16461;BME280;8341;42.048;24.650;2022-08-14T04:49:02;96530.25;;;21.78;75.85
16461;BME280;8341;42.048;24.650;2022-08-14T04:51:28;96525.06;;;21.82;75.60
16461;BME280;8341;42.048;24.650;2022-08-14T04:53:58;96516.69;;;21.90;74.97
16461;BME280;8341;42.048;24.650;2022-08-14T04:56:26;96518.50;;;21.95;74.98
16461;BME280;8341;42.048;24.650;2022-08-14T04:58:54;96518.06;;;22.06;73.90
16461;BME280;8341;42.048;24.650;2022-08-14T05:01:23;96513.44;;;22.08;73.96
16461;BME280;8341;42.048;24.650;2022-08-14T05:03:50;96516.75;;;22.07;73.85
16461;BME280;8341;42.048;24.650;2022-08-14T05:06:19;96515.47;;;22.08;73.37
16461;BME280;8341;42.048;24.650;2022-08-14T05:08:46;96508.53;;;22.16;73.03
16461;BME280;8341;42.048;24.650;2022-08-14T05:11:13;96499.97;;;22.22;72.88
16461;BME280;8341;42.048;24.650;2022-08-14T05:13:40;96494.94;;;22.28;74.29
16461;BME280;8341;42.048;24.650;2022-08-14T05:16:08;96499.66;;;22.35;74.11
16461;BME280;8341;42.048;24.650;2022-08-14T05:18:38;96494.78;;;22.43;72.92
16461;BME280;8341;42.048;24.650;2022-08-14T05:21:06;96490.88;;;22.46;72.46
16461;BME280;8341;42.048;24.650;2022-08-14T05:23:36;96489.56;;;22.47;71.90
16461;BME280;8341;42.048;24.650;2022-08-14T05:26:03;96491.47;;;22.62;71.44
16461;BME280;8341;42.048;24.650;2022-08-14T05:28:39;96486.75;;;22.72;71.67
16461;BME280;8341;42.048;24.650;2022-08-14T05:31:09;96495.97;;;22.91;70.56
16461;BME280;8341;42.048;24.650;2022-08-14T05:33:36;96497.03;;;23.13;68.39
16461;BME280;8341;42.048;24.650;2022-08-14T05:36:05;96498.75;;;23.26;67.37
16461;BME280;8341;42.048;24.650;2022-08-14T05:38:36;96508.81;;;23.38;66.77
16461;BME280;8341;42.048;24.650;2022-08-14T05:41:05;96511.00;;;23.40;65.25
16461;BME280;8341;42.048;24.650;2022-08-14T05:43:32;96519.44;;;23.49;64.90
16461;BME280;8341;42.048;24.650;2022-08-14T05:45:59;96511.13;;;23.59;64.47
16461;BME280;8341;42.048;24.650;2022-08-14T05:48:27;96513.28;;;23.78;65.09
16461;BME280;8341;42.048;24.650;2022-08-14T05:50:54;96513.22;;;23.95;65.22
16461;BME280;8341;42.048;24.650;2022-08-14T05:53:23;96515.72;;;24.00;64.04
16461;BME280;8341;42.048;24.650;2022-08-14T05:55:51;96516.38;;;24.08;62.87
16461;BME280;8341;42.048;24.650;2022-08-14T05:58:20;96512.09;;;24.07;62.69
16461;BME280;8341;42.048;24.650;2022-08-14T06:00:48;96513.00;;;24.10;62.90
16461;BME280;8341;42.048;24.650;2022-08-14T06:03:17;96518.00;;;24.11;62.76
16461;BME280;8341;42.048;24.650;2022-08-14T06:05:45;96508.19;;;24.10;63.04
16461;BME280;8341;42.048;24.650;2022-08-14T06:08:17;96516.56;;;24.20;63.08
16461;BME280;8341;42.048;24.650;2022-08-14T06:10:44;96510.72;;;24.25;63.48
16461;BME280;8341;42.048;24.650;2022-08-14T06:13:13;96513.50;;;24.25;63.48
16461;BME280;8341;42.048;24.650;2022-08-14T06:15:41;96510.13;;;24.27;63.29
16461;BME280;8341;42.048;24.650;2022-08-14T06:18:08;96513.50;;;24.25;63.49
16461;BME280;8341;42.048;24.650;2022-08-14T06:20:35;96515.88;;;24.29;63.66
16461;BME280;8341;42.048;24.650;2022-08-14T06:23:02;96514.53;;;24.30;63.97
16461;BME280;8341;42.048;24.650;2022-08-14T06:25:29;96523.34;;;24.26;65.23
16461;BME280;8341;42.048;24.650;2022-08-14T06:27:56;96518.88;;;24.14;66.49
16461;BME280;8341;42.048;24.650;2022-08-14T06:30:27;96519.81;;;23.99;66.51
16461;BME280;8341;42.048;24.650;2022-08-14T06:32:54;96522.34;;;23.78;66.54
16461;BME280;8341;42.048;24.650;2022-08-14T06:35:21;96527.63;;;23.74;67.50
16461;BME280;8341;42.048;24.650;2022-08-14T06:37:50;96532.34;;;23.81;67.72
16461;BME280;8341;42.048;24.650;2022-08-14T06:40:19;96520.16;;;23.77;67.08
16461;BME280;8341;42.048;24.650;2022-08-14T06:42:46;96519.75;;;23.80;68.02
16461;BME280;8341;42.048;24.650;2022-08-14T06:45:13;96528.38;;;23.75;69.57
16461;BME280;8341;42.048;24.650;2022-08-14T06:47:43;96524.56;;;23.53;69.71
16461;BME280;8341;42.048;24.650;2022-08-14T06:50:12;96518.06;;;23.41;68.81
16461;BME280;8341;42.048;24.650;2022-08-14T06:52:39;96522.13;;;23.40;69.72
16461;BME280;8341;42.048;24.650;2022-08-14T06:55:08;96518.19;;;23.43;67.91
16461;BME280;8341;42.048;24.650;2022-08-14T06:57:37;96530.97;;;23.46;67.58
16461;BME280;8341;42.048;24.650;2022-08-14T07:00:06;96526.56;;;23.43;66.75
16461;BME280;8341;42.048;24.650;2022-08-14T07:02:33;96521.22;;;23.54;66.96
16461;BME280;8341;42.048;24.650;2022-08-14T07:05:19;96526.13;;;23.73;66.43
16461;BME280;8341;42.048;24.650;2022-08-14T07:08:16;96530.88;;;23.80;65.80
16461;BME280;8341;42.048;24.650;2022-08-14T07:10:45;96534.00;;;23.94;66.22
16461;BME280;8341;42.048;24.650;2022-08-14T07:13:12;96540.03;;;23.90;65.66
16461;BME280;8341;42.048;24.650;2022-08-14T07:15:40;96535.38;;;23.76;64.71
16461;BME280;8341;42.048;24.650;2022-08-14T07:18:08;96529.81;;;23.76;65.43
16461;BME280;8341;42.048;24.650;2022-08-14T07:20:38;96536.13;;;23.76;65.28
16461;BME280;8341;42.048;24.650;2022-08-14T07:23:07;96532.50;;;23.83;64.54
16461;BME280;8341;42.048;24.650;2022-08-14T07:25:35;96535.47;;;23.85;64.45
16461;BME280;8341;42.048;24.650;2022-08-14T07:28:08;96542.31;;;23.84;64.75
16461;BME280;8341;42.048;24.650;2022-08-14T07:30:35;96542.28;;;23.75;63.78
16461;BME280;8341;42.048;24.650;2022-08-14T07:33:02;96543.53;;;23.64;64.94
16461;BME280;8341;42.048;24.650;2022-08-14T07:35:29;96543.84;;;23.68;64.46
16461;BME280;8341;42.048;24.650;2022-08-14T07:37:58;96543.53;;;23.64;64.21
16461;BME280;8341;42.048;24.650;2022-08-14T07:40:25;96542.00;;;23.53;64.55
16461;BME280;8341;42.048;24.650;2022-08-14T07:42:52;96536.38;;;23.44;67.32
16461;BME280;8341;42.048;24.650;2022-08-14T07:45:19;96536.69;;;23.31;72.48
16461;BME280;8341;42.048;24.650;2022-08-14T07:47:46;96536.84;;;23.33;71.77
16461;BME280;8341;42.048;24.650;2022-08-14T07:50:15;96533.25;;;23.40;71.32
16461;BME280;8341;42.048;24.650;2022-08-14T07:52:43;96530.22;;;23.45;72.81
16461;BME280;8341;42.048;24.650;2022-08-14T07:55:13;96536.38;;;23.44;71.86
16461;BME280;8341;42.048;24.650;2022-08-14T07:57:42;96539.81;;;23.52;73.38
16461;BME280;8341;42.048;24.650;2022-08-14T08:00:11;96536.75;;;23.57;75.27
16461;BME280;8341;42.048;24.650;2022-08-14T08:02:40;96540.31;;;23.94;73.28
16461;BME280;8341;42.048;24.650;2022-08-14T08:05:09;96543.25;;;24.23;74.04
16461;BME280;8341;42.048;24.650;2022-08-14T08:07:37;96535.84;;;24.45;72.04
16461;BME280;8341;42.048;24.650;2022-08-14T08:10:07;96547.84;;;24.83;67.24
16461;BME280;8341;42.048;24.650;2022-08-14T08:12:50;96537.88;;;24.90;61.17
16461;BME280;8341;42.048;24.650;2022-08-14T08:15:18;96533.41;;;24.68;62.26
16461;BME280;8341;42.048;24.650;2022-08-14T08:17:45;96534.72;;;24.67;63.90
16461;BME280;8341;42.048;24.650;2022-08-14T08:20:15;96538.91;;;24.85;64.45
16461;BME280;8341;42.048;24.650;2022-08-14T08:22:42;96539.81;;;25.16;64.36
16461;BME280;8341;42.048;24.650;2022-08-14T08:25:09;96539.06;;;25.25;63.32
16461;BME280;8341;42.048;24.650;2022-08-14T08:27:37;96537.72;;;25.17;63.52
16461;BME280;8341;42.048;24.650;2022-08-14T08:30:07;96533.19;;;25.21;63.70
16461;BME280;8341;42.048;24.650;2022-08-14T08:32:39;96543.63;;;25.11;65.29
16461;BME280;8341;42.048;24.650;2022-08-14T08:35:09;96530.53;;;25.04;64.68
16461;BME280;8341;42.048;24.650;2022-08-14T08:37:37;96541.41;;;25.00;67.05
16461;BME280;8341;42.048;24.650;2022-08-14T08:40:04;96537.00;;;24.87;68.06
16461;BME280;8341;42.048;24.650;2022-08-14T08:42:31;96552.28;;;24.41;67.90
16461;BME280;8341;42.048;24.650;2022-08-14T08:44:58;96551.75;;;24.15;72.49
16461;BME280;8341;42.048;24.650;2022-08-14T08:47:36;96552.19;;;23.95;73.09
16461;BME280;8341;42.048;24.650;2022-08-14T08:50:14;96553.16;;;23.80;74.26
16461;BME280;8341;42.048;24.650;2022-08-14T08:52:46;96556.59;;;23.44;78.45
16461;BME280;8341;42.048;24.650;2022-08-14T08:55:15;96546.34;;;22.78;85.56
16461;BME280;8341;42.048;24.650;2022-08-14T08:57:42;96536.97;;;22.49;88.08
16461;BME280;8341;42.048;24.650;2022-08-14T09:00:15;96532.13;;;22.08;92.25
16461;BME280;8341;42.048;24.650;2022-08-14T09:02:56;96527.22;;;21.91;91.57
16461;BME280;8341;42.048;24.650;2022-08-14T09:05:24;96535.50;;;21.66;96.73
16461;BME280;8341;42.048;24.650;2022-08-14T09:07:51;96532.94;;;21.61;99.06
16461;BME280;8341;42.048;24.650;2022-08-14T09:10:18;96546.59;;;21.66;98.96
16461;BME280;8341;42.048;24.650;2022-08-14T09:12:46;96542.78;;;21.54;100.00
16461;BME280;8341;42.048;24.650;2022-08-14T09:15:12;96543.69;;;21.57;98.49
16461;BME280;8341;42.048;24.650;2022-08-14T09:17:40;96551.88;;;21.47;100.00
16461;BME280;8341;42.048;24.650;2022-08-14T09:20:10;96563.56;;;21.38;100.00
16461;BME280;8341;42.048;24.650;2022-08-14T09:22:39;96557.81;;;21.44;100.00
16461;BME280;8341;42.048;24.650;2022-08-14T09:25:07;96558.19;;;21.40;100.00
16461;BME280;8341;42.048;24.650;2022-08-14T09:27:36;96540.06;;;21.39;100.00
16461;BME280;8341;42.048;24.650;2022-08-14T09:30:05;96534.38;;;21.30;100.00
16461;BME280;8341;42.048;24.650;2022-08-14T09:32:50;96525.72;;;21.26;100.00
16461;BME280;8341;42.048;24.650;2022-08-14T09:35:31;96536.09;;;21.17;100.00
16461;BME280;8341;42.048;24.650;2022-08-14T09:38:08;96541.28;;;21.13;100.00
16461;BME280;8341;42.048;24.650;2022-08-14T09:40:43;96526.31;;;21.09;100.00
16461;BME280;8341;42.048;24.650;2022-08-14T09:43:21;96520.22;;;21.10;100.00
16461;BME280;8341;42.048;24.650;2022-08-14T09:45:54;96527.63;;;21.08;100.00
16461;BME280;8341;42.048;24.650;2022-08-14T09:48:25;96533.91;;;21.08;100.00
16461;BME280;8341;42.048;24.650;2022-08-14T09:50:55;96537.41;;;21.09;100.00
16461;BME280;8341;42.048;24.650;2022-08-14T09:53:35;96534.59;;;21.24;100.00
16461;BME280;8341;42.048;24.650;2022-08-14T09:56:03;96529.00;;;21.32;100.00
16461;BME280;8341;42.048;24.650;2022-08-14T09:58:38;96528.59;;;21.43;100.00
16461;BME280;8341;42.048;24.650;2022-08-14T10:01:09;96537.63;;;21.51;100.00
16461;BME280;8341;42.048;24.650;2022-08-14T10:03:38;96536.09;;;21.57;100.00
16461;BME280;8341;42.048;24.650;2022-08-14T10:06:16;96538.88;;;21.57;100.00
16461;BME280;8341;42.048;24.650;2022-08-14T10:08:46;96522.25;;;21.50;100.00
16461;BME280;8341;42.048;24.650;2022-08-14T10:11:17;96513.72;;;21.55;100.00
16461;BME280;8341;42.048;24.650;2022-08-14T10:13:46;96513.31;;;21.66;100.00
16461;BME280;8341;42.048;24.650;2022-08-14T10:16:17;96507.19;;;21.68;100.00
16461;BME280;8341;42.048;24.650;2022-08-14T10:18:47;96515.91;;;21.64;100.00
16461;BME280;8341;42.048;24.650;2022-08-14T10:21:17;96522.16;;;21.65;100.00
16461;BME280;8341;42.048;24.650;2022-08-14T10:23:46;96536.28;;;21.59;100.00
16461;BME280;8341;42.048;24.650;2022-08-14T10:26:18;96523.03;;;21.43;100.00
16461;BME280;8341;42.048;24.650;2022-08-14T10:28:47;96521.91;;;21.46;100.00
16461;BME280;8341;42.048;24.650;2022-08-14T10:31:17;96524.91;;;21.40;100.00
16461;BME280;8341;42.048;24.650;2022-08-14T10:33:57;96516.59;;;21.40;100.00
16461;BME280;8341;42.048;24.650;2022-08-14T10:36:31;96497.81;;;21.16;100.00
16461;BME280;8341;42.048;24.650;2022-08-14T10:38:59;96488.41;;;21.11;100.00
16461;BME280;8341;42.048;24.650;2022-08-14T10:41:38;96488.38;;;21.19;100.00
16461;BME280;8341;42.048;24.650;2022-08-14T10:44:08;96493.53;;;21.30;100.00
16461;BME280;8341;42.048;24.650;2022-08-14T10:46:40;96494.88;;;21.14;100.00
16461;BME280;8341;42.048;24.650;2022-08-14T10:49:16;96492.13;;;20.99;100.00
16461;BME280;8341;42.048;24.650;2022-08-14T10:51:56;96485.84;;;21.06;100.00
16461;BME280;8341;42.048;24.650;2022-08-14T10:54:35;96475.13;;;21.10;100.00
16461;BME280;8341;42.048;24.650;2022-08-14T10:57:13;96482.53;;;21.07;100.00
16461;BME280;8341;42.048;24.650;2022-08-14T10:59:42;96490.44;;;21.11;100.00
16461;BME280;8341;42.048;24.650;2022-08-14T11:02:31;96494.72;;;21.12;100.00
16461;BME280;8341;42.048;24.650;2022-08-14T11:05:06;96482.72;;;21.09;100.00
16461;BME280;8341;42.048;24.650;2022-08-14T11:07:35;96474.00;;;21.13;100.00
16461;BME280;8341;42.048;24.650;2022-08-14T11:10:06;96488.41;;;21.11;100.00
16461;BME280;8341;42.048;24.650;2022-08-14T11:12:44;96487.47;;;21.16;100.00
16461;BME280;8341;42.048;24.650;2022-08-14T11:15:14;96486.22;;;21.10;100.00
16461;BME280;8341;42.048;24.650;2022-08-14T11:17:42;96486.44;;;20.97;100.00
16461;BME280;8341;42.048;24.650;2022-08-14T11:20:13;96497.69;;;20.99;100.00
16461;BME280;8341;42.048;24.650;2022-08-14T11:22:41;96502.13;;;21.02;100.00
16461;BME280;8341;42.048;24.650;2022-08-14T11:25:10;96497.69;;;20.99;100.00
16461;BME280;8341;42.048;24.650;2022-08-14T11:27:39;96512.34;;;20.84;100.00
16461;BME280;8341;42.048;24.650;2022-08-14T11:30:09;96519.19;;;20.68;100.00
16461;BME280;8341;42.048;24.650;2022-08-14T11:32:38;96518.84;;;20.72;100.00
16461;BME280;8341;42.048;24.650;2022-08-14T11:35:10;96518.81;;;20.79;100.00
16461;BME280;8341;42.048;24.650;2022-08-14T11:37:37;96521.22;;;20.68;100.00
16461;BME280;8341;42.048;24.650;2022-08-14T11:40:14;96518.47;;;20.68;100.00
16461;BME280;8341;42.048;24.650;2022-08-14T11:42:44;96522.88;;;20.71;100.00
16461;BME280;8341;42.048;24.650;2022-08-14T11:45:12;96520.50;;;20.75;100.00
16461;BME280;8341;42.048;24.650;2022-08-14T11:47:39;96517.72;;;20.75;100.00
16461;BME280;8341;42.048;24.650;2022-08-14T11:50:11;96506.22;;;20.86;100.00
16461;BME280;8341;42.048;24.650;2022-08-14T11:52:38;96503.81;;;20.90;100.00
16461;BME280;8341;42.048;24.650;2022-08-14T11:55:09;96511.75;;;20.93;100.00
16461;BME280;8341;42.048;24.650;2022-08-14T11:57:37;96513.97;;;20.95;100.00
16461;BME280;8341;42.048;24.650;2022-08-14T12:00:06;96512.47;;;21.01;100.00
16461;BME280;8341;42.048;24.650;2022-08-14T12:02:34;96512.66;;;20.96;100.00
16461;BME280;8341;42.048;24.650;2022-08-14T12:05:02;96510.28;;;20.92;100.00
16461;BME280;8341;42.048;24.650;2022-08-14T12:07:29;96501.41;;;20.94;100.00
16461;BME280;8341;42.048;24.650;2022-08-14T12:09:56;96489.06;;;20.80;100.00
16461;BME280;8341;42.048;24.650;2022-08-14T12:12:26;96508.06;;;20.91;100.00
16461;BME280;8341;42.048;24.650;2022-08-14T12:14:56;96508.81;;;20.91;100.00
16461;BME280;8341;42.048;24.650;2022-08-14T12:17:26;96505.13;;;20.89;100.00
16461;BME280;8341;42.048;24.650;2022-08-14T12:19:55;96503.81;;;20.90;100.00
16461;BME280;8341;42.048;24.650;2022-08-14T12:22:34;96493.09;;;20.86;100.00
16461;BME280;8341;42.048;24.650;2022-08-14T12:25:01;96498.09;;;20.95;100.00
16461;BME280;8341;42.048;24.650;2022-08-14T12:27:40;96493.25;;;20.96;100.00
16461;BME280;8341;42.048;24.650;2022-08-14T12:30:11;96501.56;;;20.96;100.00
16461;BME280;8341;42.048;24.650;2022-08-14T12:32:42;96493.63;;;21.00;100.00
16461;BME280;8341;42.048;24.650;2022-08-14T12:35:09;96503.06;;;20.97;100.00
16461;BME280;8341;42.048;24.650;2022-08-14T12:37:36;96495.84;;;20.94;100.00
16461;BME280;8341;42.048;24.650;2022-08-14T12:40:12;96501.56;;;20.96;100.00
16461;BME280;8341;42.048;24.650;2022-08-14T12:42:41;96493.31;;;20.81;100.00
16461;BME280;8341;42.048;24.650;2022-08-14T12:45:10;96495.91;;;20.79;100.00
16461;BME280;8341;42.048;24.650;2022-08-14T12:47:38;96495.00;;;20.69;100.00
16461;BME280;8341;42.048;24.650;2022-08-14T12:50:07;96494.06;;;20.74;100.00
16461;BME280;8341;42.048;24.650;2022-08-14T12:52:35;96482.50;;;20.37;100.00
16461;BME280;8341;42.048;24.650;2022-08-14T12:55:07;96467.91;;;20.44;100.00
16461;BME280;8341;42.048;24.650;2022-08-14T12:57:41;96457.38;;;20.50;100.00
16461;BME280;8341;42.048;24.650;2022-08-14T13:00:11;96453.13;;;20.49;100.00
16461;BME280;8341;42.048;24.650;2022-08-14T13:02:39;96460.91;;;20.36;100.00
16461;BME280;8341;42.048;24.650;2022-08-14T13:05:08;96474.94;;;20.38;100.00
16461;BME280;8341;42.048;24.650;2022-08-14T13:07:37;96483.44;;;20.40;100.00
16461;BME280;8341;42.048;24.650;2022-08-14T13:10:06;96490.81;;;20.37;100.00